Time;durP1;ratioP1;P1;durP2;ratioP2;P2;SDS_P1;SDS_P2;PMS_P1;PMS_P2;Temp;Humidity;BMP_temperature;BMP_pressure;BME280_temperature;BME280_humidity;BME280_pressure;Samples;Min_cycle;Max_cycle;Signal;HPM_P1;HPM_P2
2022/09/16 00:01:20;;;;;;;6.65;1.05;;;11.20;99.90;;;;;;5064846;28;20039;-64
2022/09/16 00:03:46;;;;;;;3.65;0.65;;;11.30;99.90;;;;;;5066836;28;20039;-64
2022/09/16 00:06:21;;;;;;;4.53;0.80;;;11.30;99.90;;;;;;5063927;28;20059;-64
2022/09/16 00:08:47;;;;;;;4.38;0.77;;;11.30;99.90;;;;;;5067583;28;20043;-65
2022/09/16 00:11:14;;;;;;;7.55;1.40;;;11.20;99.90;;;;;;5098068;28;20036;-66
2022/09/16 00:13:39;;;;;;;3.85;0.80;;;11.20;99.90;;;;;;5067063;28;20085;-64
2022/09/16 00:16:10;;;;;;;3.47;0.82;;;11.20;99.90;;;;;;5067511;28;20033;-66
2022/09/16 00:18:36;;;;;;;6.55;0.70;;;11.20;99.90;;;;;;5063844;28;20047;-65
2022/09/16 00:21:06;;;;;;;6.18;0.90;;;11.20;99.90;;;;;;5067806;28;20403;-65
2022/09/16 00:23:31;;;;;;;4.70;1.20;;;11.30;99.90;;;;;;5067184;28;20043;-66
2022/09/16 00:25:57;;;;;;;6.60;0.80;;;11.30;99.90;;;;;;5068407;28;20838;-65
2022/09/16 00:28:23;;;;;;;7.03;1.50;;;11.30;99.90;;;;;;5071360;28;20040;-67
2022/09/16 00:30:48;;;;;;;5.07;0.88;;;11.30;99.90;;;;;;5070746;28;20032;-65
2022/09/16 00:33:14;;;;;;;7.47;1.25;;;11.30;99.90;;;;;;5071378;28;20037;-65
2022/09/16 00:35:40;;;;;;;6.60;1.00;;;11.30;99.90;;;;;;5070386;28;20049;-65
2022/09/16 00:38:06;;;;;;;4.03;0.70;;;11.30;99.90;;;;;;5072192;28;20040;-64
2022/09/16 00:40:32;;;;;;;7.82;1.30;;;11.30;99.90;;;;;;5071000;28;20080;-65
2022/09/16 00:42:59;;;;;;;10.25;1.25;;;11.30;99.90;;;;;;5053787;28;20052;-65
2022/09/16 00:45:30;;;;;;;3.08;0.88;;;11.40;99.90;;;;;;5070755;28;20051;-65
2022/09/16 00:48:00;;;;;;;4.63;0.80;;;11.40;99.90;;;;;;5070684;28;20044;-65
2022/09/16 00:50:36;;;;;;;6.20;0.77;;;11.40;99.90;;;;;;5071172;28;20032;-67
2022/09/16 00:53:03;;;;;;;6.18;0.98;;;11.50;99.90;;;;;;5069672;28;20063;-64
2022/09/16 00:55:33;;;;;;;6.13;1.55;;;11.50;99.90;;;;;;5071633;28;20130;-65
2022/09/16 00:58:27;;;;;;;4.75;0.80;;;11.50;99.90;;;;;;5068329;28;20499;-64
2022/09/16 01:00:53;;;;;;;6.53;0.70;;;11.50;99.90;;;;;;5070419;28;20037;-64
2022/09/16 01:03:20;;;;;;;5.93;1.00;;;11.50;99.90;;;;;;5069740;28;20051;-65
2022/09/16 01:05:46;;;;;;;3.50;1.00;;;11.40;99.90;;;;;;5070241;28;20028;-66
2022/09/16 01:08:12;;;;;;;3.90;0.88;;;11.40;99.90;;;;;;5068376;28;20514;-64
2022/09/16 01:10:41;;;;;;;5.25;0.85;;;11.40;99.90;;;;;;5069486;28;20052;-65
2022/09/16 01:13:09;;;;;;;3.85;0.70;;;11.40;99.90;;;;;;5071431;28;20036;-65
2022/09/16 01:16:03;;;;;;;5.47;0.80;;;11.40;99.90;;;;;;5070997;28;20040;-65
2022/09/16 01:18:32;;;;;;;5.57;1.15;;;11.40;99.90;;;;;;5031150;28;20052;-65
2022/09/16 01:21:04;;;;;;;5.00;0.73;;;11.40;99.90;;;;;;5032459;28;20238;-65
2022/09/16 01:24:06;;;;;;;4.90;0.80;;;11.50;99.90;;;;;;5032619;28;20077;-66
2022/09/16 01:26:43;;;;;;;5.53;0.93;;;11.50;99.90;;;;;;4973674;28;20121;-65
2022/09/16 01:29:43;;;;;;;4.43;0.90;;;11.50;99.90;;;;;;4973687;28;20046;-64
2022/09/16 01:32:25;;;;;;;2.83;0.60;;;11.50;99.90;;;;;;4972659;28;20556;-65
2022/09/16 01:35:14;;;;;;;2.73;0.60;;;11.50;99.90;;;;;;4973618;28;20042;-66
2022/09/16 01:38:13;;;;;;;7.28;0.98;;;11.60;99.90;;;;;;4973501;28;20309;-66
2022/09/16 01:41:00;;;;;;;4.30;0.80;;;11.50;99.90;;;;;;4974186;28;20054;-65
2022/09/16 01:43:46;;;;;;;5.07;0.90;;;11.60;99.90;;;;;;4957832;28;20038;-64
2022/09/16 01:46:30;;;;;;;5.07;0.90;;;11.50;99.90;;;;;;4972706;28;20045;-65
2022/09/16 01:49:08;;;;;;;5.57;1.13;;;11.50;99.90;;;;;;4972788;28;20124;-65
2022/09/16 01:51:43;;;;;;;5.43;0.70;;;11.50;99.90;;;;;;4971290;28;20093;-65
2022/09/16 01:54:12;;;;;;;5.55;0.75;;;11.50;99.90;;;;;;4954671;28;20085;-66
2022/09/16 01:56:45;;;;;;;6.55;0.80;;;11.40;99.90;;;;;;5011763;28;20045;-64
2022/09/16 01:59:22;;;;;;;5.22;0.73;;;11.40;99.90;;;;;;5011415;28;20046;-66
2022/09/16 02:02:12;;;;;;;6.15;1.08;;;11.40;99.90;;;;;;5031466;28;20052;-66
2022/09/16 02:04:49;;;;;;;3.75;0.80;;;11.40;99.90;;;;;;5030213;28;20085;-64
2022/09/16 02:07:19;;;;;;;2.97;0.80;;;11.50;99.90;;;;;;5031418;28;20094;-64
2022/09/16 02:09:53;;;;;;;5.70;0.80;;;11.50;99.90;;;;;;5031384;28;20167;-64
2022/09/16 02:12:27;;;;;;;4.30;0.70;;;11.50;99.90;;;;;;5048518;28;20045;-65
2022/09/16 02:14:58;;;;;;;4.53;0.85;;;11.40;99.90;;;;;;5029797;28;20080;-64
2022/09/16 02:17:28;;;;;;;8.23;1.17;;;11.40;99.90;;;;;;5029478;28;20052;-65
2022/09/16 02:20:04;;;;;;;4.93;0.70;;;11.40;99.90;;;;;;5031550;28;20052;-64
2022/09/16 02:22:50;;;;;;;4.78;0.98;;;11.40;99.90;;;;;;5031131;28;20491;-65
2022/09/16 02:25:18;;;;;;;6.00;0.95;;;11.30;99.90;;;;;;5030972;28;20395;-63
2022/09/16 02:27:47;;;;;;;4.43;0.68;;;11.30;99.90;;;;;;5028757;28;20120;-64
2022/09/16 02:30:17;;;;;;;5.53;0.85;;;11.30;99.90;;;;;;5030497;28;20090;-64
2022/09/16 02:32:47;;;;;;;5.13;0.80;;;11.30;99.90;;;;;;5030784;28;20076;-64
2022/09/16 02:35:16;;;;;;;7.80;0.90;;;11.20;99.90;;;;;;5031996;28;20127;-65
2022/09/16 02:37:58;;;;;;;5.53;0.85;;;11.20;99.90;;;;;;5012184;28;20575;-66
2022/09/16 02:40:33;;;;;;;3.38;0.90;;;11.10;99.90;;;;;;5031804;28;20056;-64
2022/09/16 02:42:59;;;;;;;5.70;0.88;;;11.10;99.90;;;;;;5100656;28;20032;-63
2022/09/16 02:45:41;;;;;;;4.90;0.80;;;11.10;99.90;;;;;;5067417;28;20037;-64
2022/09/16 02:48:19;;;;;;;2.30;0.70;;;11.10;99.90;;;;;;5061219;28;20040;-64
2022/09/16 02:50:59;;;;;;;4.28;1.10;;;11.10;99.90;;;;;;5066782;28;20041;-66
2022/09/16 02:53:58;;;;;;;2.42;0.63;;;11.10;99.90;;;;;;5067245;28;20052;-65
2022/09/16 02:56:29;;;;;;;3.78;0.70;;;11.00;99.90;;;;;;5069678;28;20402;-65
2022/09/16 02:58:55;;;;;;;4.80;0.80;;;11.10;99.90;;;;;;5064537;28;20044;-64
2022/09/16 03:01:23;;;;;;;5.43;0.88;;;11.10;99.90;;;;;;5065489;28;20514;-65
2022/09/16 03:03:49;;;;;;;5.75;1.05;;;11.10;99.90;;;;;;5069228;28;20036;-64
2022/09/16 03:06:19;;;;;;;7.30;0.90;;;11.10;99.90;;;;;;5067516;28;20323;-65
2022/09/16 03:08:46;;;;;;;8.52;0.90;;;11.10;99.90;;;;;;5067140;28;20044;-66
2022/09/16 03:11:39;;;;;;;4.10;1.02;;;11.10;99.90;;;;;;5068102;28;20047;-64
2022/09/16 03:14:23;;;;;;;;;;;11.00;99.90;;;;;;5067829;28;20075;-64
2022/09/16 03:17:39;;;;;;;6.90;0.80;;;11.00;99.90;;;;;;5065916;28;19921;-65
2022/09/16 03:20:09;;;;;;;4.43;0.80;;;11.00;99.90;;;;;;5031109;28;20081;-65
2022/09/16 03:23:19;;;;;;;5.05;0.75;;;11.00;99.90;;;;;;5030075;28;20044;-66
2022/09/16 03:26:10;;;;;;;2.33;0.60;;;11.00;99.90;;;;;;4970274;28;20039;-65
2022/09/16 03:29:14;;;;;;;3.83;0.77;;;11.00;99.90;;;;;;4987942;28;20525;-66
2022/09/16 03:31:58;;;;;;;3.47;0.82;;;11.10;99.90;;;;;;4970976;28;20047;-65
2022/09/16 03:34:51;;;;;;;4.55;0.70;;;11.10;99.90;;;;;;4955399;28;20054;-65
2022/09/16 03:37:20;;;;;;;7.85;1.05;;;11.10;99.90;;;;;;4969320;28;20484;-64
2022/09/16 03:39:54;;;;;;;3.53;0.70;;;11.10;99.90;;;;;;4970161;28;20046;-65
2022/09/16 03:42:21;;;;;;;2.15;0.70;;;11.10;99.90;;;;;;4967035;28;20080;-65
2022/09/16 03:44:47;;;;;;;4.10;0.95;;;11.00;99.90;;;;;;4971202;28;20038;-65
2022/09/16 03:47:13;;;;;;;3.22;0.70;;;11.00;99.90;;;;;;4971110;28;20202;-66
2022/09/16 03:49:39;;;;;;;6.70;0.90;;;11.00;99.90;;;;;;4971375;28;20043;-65
2022/09/16 03:52:05;;;;;;;3.00;0.70;;;11.00;99.90;;;;;;4971229;28;20093;-65
2022/09/16 03:54:31;;;;;;;4.03;0.80;;;11.00;99.90;;;;;;4997178;28;20091;-65
2022/09/16 03:56:59;;;;;;;3.72;0.90;;;11.00;99.90;;;;;;5009782;28;20049;-65
2022/09/16 03:59:25;;;;;;;3.47;0.73;;;11.00;99.90;;;;;;5028291;28;20061;-65
2022/09/16 04:01:52;;;;;;;2.33;0.50;;;11.00;99.90;;;;;;5065849;28;20143;-64
2022/09/16 04:04:17;;;;;;;4.00;0.88;;;11.00;99.90;;;;;;5069334;28;20140;-65
2022/09/16 04:06:43;;;;;;;3.13;0.80;;;11.00;99.90;;;;;;5071429;28;20127;-66
2022/09/16 04:09:12;;;;;;;4.53;0.73;;;11.00;99.90;;;;;;5072754;28;20123;-65
2022/09/16 04:11:39;;;;;;;5.13;1.10;;;11.00;99.90;;;;;;5071436;28;20033;-65
2022/09/16 04:14:05;;;;;;;2.90;0.80;;;10.90;99.90;;;;;;5072120;28;20041;-65
2022/09/16 04:16:32;;;;;;;3.40;1.23;;;10.80;99.90;;;;;;5055238;28;20109;-64
2022/09/16 04:18:57;;;;;;;3.22;1.02;;;10.80;99.90;;;;;;5072437;28;20376;-65
2022/09/16 04:21:23;;;;;;;4.25;0.80;;;10.80;99.90;;;;;;5072402;28;20043;-65
2022/09/16 04:23:50;;;;;;;6.28;1.33;;;10.70;99.90;;;;;;5070613;28;20091;-64
2022/09/16 04:26:16;;;;;;;4.18;0.98;;;10.70;99.90;;;;;;5069890;28;20128;-65
2022/09/16 04:28:41;;;;;;;3.72;0.70;;;10.70;99.90;;;;;;5072361;28;20037;-65
2022/09/16 04:31:10;;;;;;;6.70;0.93;;;10.80;99.90;;;;;;5070236;28;20097;-65
2022/09/16 04:33:37;;;;;;;4.22;1.00;;;10.80;99.90;;;;;;5072527;28;20115;-64
2022/09/16 04:36:08;;;;;;;3.53;0.90;;;10.80;99.90;;;;;;5070713;28;20043;-64
2022/09/16 04:38:34;;;;;;;3.50;0.85;;;10.80;99.90;;;;;;5071041;28;20056;-65
2022/09/16 04:41:02;;;;;;;3.17;0.80;;;10.80;99.90;;;;;;5069176;28;20056;-65
2022/09/16 04:43:28;;;;;;;5.53;1.23;;;10.80;99.90;;;;;;5069859;28;20032;-65
2022/09/16 04:45:54;;;;;;;2.20;0.70;;;10.80;99.90;;;;;;5070397;28;20037;-64
2022/09/16 04:48:20;;;;;;;3.53;0.90;;;10.80;99.90;;;;;;5070437;28;20036;-65
2022/09/16 04:50:45;;;;;;;2.63;0.90;;;10.70;99.90;;;;;;5072275;28;21087;-65
2022/09/16 04:53:11;;;;;;;3.28;0.85;;;10.80;99.90;;;;;;5072531;28;20487;-65
2022/09/16 04:55:37;;;;;;;5.60;0.95;;;10.70;99.90;;;;;;5070586;28;20037;-64
2022/09/16 04:58:02;;;;;;;4.18;0.88;;;10.60;99.90;;;;;;5071167;28;20048;-65
2022/09/16 05:00:28;;;;;;;9.20;2.55;;;10.60;99.90;;;;;;5069086;28;20052;-65
2022/09/16 05:02:54;;;;;;;7.97;1.02;;;10.60;99.90;;;;;;5068715;28;20119;-65
2022/09/16 05:05:20;;;;;;;4.75;0.95;;;10.50;99.90;;;;;;5069574;28;20040;-65
2022/09/16 05:07:46;;;;;;;6.47;1.77;;;10.50;99.90;;;;;;5054713;28;20115;-64
2022/09/16 05:10:11;;;;;;;5.90;0.80;;;10.50;99.90;;;;;;5070579;28;20186;-64
2022/09/16 05:12:37;;;;;;;3.70;0.80;;;10.50;99.90;;;;;;5069225;28;20037;-64
2022/09/16 05:15:04;;;;;;;5.30;1.08;;;10.50;99.90;;;;;;5104204;28;20146;-65
2022/09/16 05:17:30;;;;;;;8.18;1.40;;;10.50;99.90;;;;;;5068929;28;20052;-64
2022/09/16 05:19:56;;;;;;;5.55;1.25;;;10.50;99.90;;;;;;5068149;28;20054;-64
2022/09/16 05:22:22;;;;;;;6.10;1.05;;;10.40;99.90;;;;;;5069675;28;20511;-65
2022/09/16 05:24:47;;;;;;;5.35;0.90;;;10.50;99.90;;;;;;5069807;28;20106;-65
2022/09/16 05:27:13;;;;;;;5.28;0.90;;;10.40;99.90;;;;;;5070016;28;20040;-63
2022/09/16 05:29:39;;;;;;;5.40;1.00;;;10.40;99.90;;;;;;5053697;28;20450;-65
2022/09/16 05:32:05;;;;;;;6.72;1.05;;;10.40;99.90;;;;;;5066416;28;20103;-64
2022/09/16 05:34:30;;;;;;;8.18;0.93;;;10.40;99.90;;;;;;5069339;28;20048;-63
2022/09/16 05:36:56;;;;;;;6.53;1.05;;;10.40;99.90;;;;;;5070457;28;20087;-63
2022/09/16 05:39:23;;;;;;;6.80;1.15;;;10.40;99.90;;;;;;5069923;28;20052;-64
2022/09/16 05:41:51;;;;;;;5.88;1.08;;;10.40;99.90;;;;;;5068820;28;20060;-64
2022/09/16 05:44:16;;;;;;;7.28;1.30;;;10.50;99.90;;;;;;5068432;28;20032;-63
2022/09/16 05:46:42;;;;;;;5.28;1.15;;;10.50;99.90;;;;;;5069954;28;20041;-63
2022/09/16 05:49:09;;;;;;;5.57;0.90;;;10.50;99.90;;;;;;5067086;28;20098;-64
2022/09/16 05:51:36;;;;;;;6.78;1.02;;;10.50;99.90;;;;;;5071266;28;20486;-64
2022/09/16 05:54:02;;;;;;;3.85;0.77;;;10.50;99.90;;;;;;5069008;28;20043;-66
2022/09/16 05:56:30;;;;;;;8.70;1.00;;;10.50;99.90;;;;;;5050338;28;20037;-65
2022/09/16 05:58:58;;;;;;;9.48;1.00;;;10.60;99.90;;;;;;5051428;28;20053;-66
2022/09/16 06:01:32;;;;;;;8.02;1.05;;;10.60;99.90;;;;;;5065796;28;20086;-65
2022/09/16 06:04:01;;;;;;;7.05;1.13;;;10.60;99.90;;;;;;5068489;28;20032;-66
2022/09/16 06:06:38;;;;;;;8.77;1.13;;;10.60;99.90;;;;;;5071955;28;20036;-65
2022/09/16 06:09:06;;;;;;;4.40;0.80;;;10.70;99.90;;;;;;5068849;28;20055;-65
2022/09/16 06:11:42;;;;;;;4.95;0.82;;;10.70;99.90;;;;;;5070276;28;20085;-64
2022/09/16 06:14:08;;;;;;;6.40;0.95;;;10.80;99.90;;;;;;5070314;28;20063;-64
2022/09/16 06:16:35;;;;;;;7.68;1.25;;;10.80;99.90;;;;;;5102382;28;20102;-64
2022/09/16 06:19:02;;;;;;;11.63;1.45;;;10.80;99.90;;;;;;5068272;28;20040;-65
2022/09/16 06:21:29;;;;;;;7.40;0.90;;;10.80;99.90;;;;;;5068425;28;20102;-65
2022/09/16 06:23:55;;;;;;;7.07;1.15;;;10.90;99.90;;;;;;5069704;28;20040;-64
2022/09/16 06:26:23;;;;;;;7.00;1.08;;;10.90;99.90;;;;;;5050619;28;20047;-64
2022/09/16 06:28:51;;;;;;;6.70;1.05;;;11.00;99.90;;;;;;5070909;28;20047;-65
2022/09/16 06:31:20;;;;;;;7.00;0.73;;;11.00;99.90;;;;;;5063722;28;20044;-64
2022/09/16 06:33:49;;;;;;;7.03;1.30;;;11.00;99.90;;;;;;5067571;28;20049;-65
2022/09/16 06:36:17;;;;;;;7.38;1.20;;;11.10;99.90;;;;;;5070504;28;20059;-65
2022/09/16 06:38:44;;;;;;;5.43;0.88;;;11.10;99.90;;;;;;5067493;28;20052;-65
2022/09/16 06:41:11;;;;;;;4.93;0.75;;;11.20;99.90;;;;;;5065877;28;20094;-65
2022/09/16 06:43:38;;;;;;;10.40;1.40;;;11.20;99.90;;;;;;5070020;28;20032;-65
2022/09/16 06:46:09;;;;;;;5.00;1.10;;;11.30;99.90;;;;;;5067370;28;20410;-65
2022/09/16 06:48:35;;;;;;;6.05;1.05;;;11.40;99.90;;;;;;5068208;28;20182;-65
2022/09/16 06:51:03;;;;;;;10.57;2.05;;;11.50;99.90;;;;;;5068145;28;20427;-65
2022/09/16 06:53:29;;;;;;;10.25;1.10;;;11.60;99.90;;;;;;5065240;28;20080;-65
2022/09/16 06:55:58;;;;;;;8.45;1.27;;;11.80;99.90;;;;;;5067232;28;20064;-65
2022/09/16 06:58:24;;;;;;;7.28;1.23;;;11.90;99.90;;;;;;5068190;28;20151;-65
2022/09/16 07:00:50;;;;;;;7.82;1.30;;;12.10;99.90;;;;;;5062636;28;20124;-65
2022/09/16 07:03:16;;;;;;;7.30;1.48;;;12.20;99.90;;;;;;5068005;28;20045;-65
2022/09/16 07:05:41;;;;;;;9.23;1.23;;;12.30;99.90;;;;;;5066242;28;20041;-65
2022/09/16 07:08:07;;;;;;;6.55;0.95;;;12.40;99.90;;;;;;5064988;28;20033;-65
2022/09/16 07:10:33;;;;;;;10.35;1.83;;;12.50;99.90;;;;;;5066119;28;20463;-65
2022/09/16 07:12:58;;;;;;;6.60;1.00;;;12.60;99.90;;;;;;5066022;28;20052;-65
2022/09/16 07:15:24;;;;;;;6.78;1.10;;;12.70;99.90;;;;;;5066107;28;20040;-65
2022/09/16 07:17:56;;;;;;;8.38;1.27;;;12.70;99.90;;;;;;5065950;28;20048;-65
2022/09/16 07:20:21;;;;;;;6.33;1.00;;;12.80;99.90;;;;;;5065445;28;20075;-65
2022/09/16 07:22:49;;;;;;;8.05;1.30;;;12.90;99.90;;;;;;5062827;28;20307;-66
2022/09/16 07:25:15;;;;;;;7.40;1.58;;;13.00;99.90;;;;;;5064381;28;20056;-65
2022/09/16 07:27:41;;;;;;;7.60;1.10;;;13.10;99.90;;;;;;5068098;28;20444;-65
2022/09/16 07:30:07;;;;;;;10.05;1.10;;;13.10;99.90;;;;;;5063915;28;20041;-65
2022/09/16 07:32:33;;;;;;;7.70;1.35;;;13.30;99.90;;;;;;5063150;28;20402;-65
2022/09/16 07:34:58;;;;;;;6.95;1.35;;;13.30;99.90;;;;;;5062436;28;20052;-66
2022/09/16 07:37:24;;;;;;;7.63;1.40;;;13.50;99.90;;;;;;5062408;28;20483;-65
2022/09/16 07:39:49;;;;;;;8.25;1.15;;;13.60;99.90;;;;;;5062459;28;20056;-65
2022/09/16 07:42:15;;;;;;;6.55;1.10;;;13.70;99.90;;;;;;5065341;28;20410;-65
2022/09/16 07:44:41;;;;;;;6.85;1.25;;;13.80;99.90;;;;;;5051154;28;20045;-65
2022/09/16 07:47:06;;;;;;;9.38;1.35;;;14.00;99.90;;;;;;5063733;28;20037;-65
2022/09/16 07:49:32;;;;;;;7.05;0.90;;;14.10;99.90;;;;;;5047504;28;20164;-66
2022/09/16 07:51:57;;;;;;;5.28;1.00;;;14.10;99.90;;;;;;5065279;28;20151;-65
2022/09/16 07:54:23;;;;;;;10.88;1.30;;;14.10;99.90;;;;;;5066184;28;20102;-65
2022/09/16 07:56:49;;;;;;;9.07;2.38;;;14.20;99.90;;;;;;5065484;28;20174;-65
2022/09/16 07:59:17;;;;;;;11.48;1.05;;;14.30;99.90;;;;;;5065580;28;20053;-65
2022/09/16 08:01:42;;;;;;;10.10;1.40;;;14.40;99.90;;;;;;5067231;28;20094;-65
2022/09/16 08:04:08;;;;;;;7.72;1.10;;;14.50;99.90;;;;;;5067672;28;20036;-66
2022/09/16 08:06:37;;;;;;;6.43;1.10;;;14.60;99.90;;;;;;5068738;28;20040;-66
2022/09/16 08:09:03;;;;;;;5.65;1.10;;;14.70;99.90;;;;;;5067933;28;20885;-65
2022/09/16 08:11:29;;;;;;;9.65;1.20;;;14.80;99.90;;;;;;5068286;28;20032;-65
2022/09/16 08:13:58;;;;;;;11.55;1.52;;;14.90;99.90;;;;;;5050090;28;20063;-65
2022/09/16 08:16:23;;;;;;;10.38;1.38;;;14.90;99.90;;;;;;5067567;28;20078;-65
2022/09/16 08:18:52;;;;;;;7.53;0.90;;;15.10;99.90;;;;;;5067198;28;20040;-66
2022/09/16 08:21:21;;;;;;;5.57;1.02;;;15.20;99.90;;;;;;5067204;28;20040;-65
2022/09/16 08:23:47;;;;;;;7.00;1.30;;;15.20;99.90;;;;;;5068770;28;20028;-65
2022/09/16 08:26:14;;;;;;;6.72;1.15;;;15.30;99.90;;;;;;5066214;28;20048;-65
2022/09/16 08:28:41;;;;;;;9.65;1.40;;;15.30;99.90;;;;;;5066149;28;20436;-66
2022/09/16 08:31:08;;;;;;;8.90;1.50;;;15.40;99.90;;;;;;5064752;28;20040;-65
2022/09/16 08:33:34;;;;;;;8.93;1.05;;;15.40;99.90;;;;;;5065919;28;20044;-65
2022/09/16 08:36:04;;;;;;;8.05;1.00;;;15.60;99.90;;;;;;5064344;28;20050;-65
2022/09/16 08:38:31;;;;;;;8.80;1.25;;;15.60;99.90;;;;;;5065864;28;20044;-66
2022/09/16 08:41:25;;;;;;;8.35;1.30;;;15.80;99.90;;;;;;5063619;28;20106;-66
2022/09/16 08:44:10;;;;;;;9.18;1.85;;;15.90;99.90;;;;;;5065641;28;20052;-66
2022/09/16 08:46:51;;;;;;;12.50;1.70;;;16.10;99.90;;;;;;5063393;28;20041;-66
2022/09/16 08:49:34;;;;;;;10.70;1.27;;;16.10;99.90;;;;;;5070004;28;20037;-66
2022/09/16 08:52:26;;;;;;;10.18;1.27;;;16.20;99.90;;;;;;5068992;28;20044;-65
2022/09/16 08:55:24;;;;;;;9.88;1.48;;;16.20;99.90;;;;;;5092015;28;20040;-66
2022/09/16 08:57:58;;;;;;;8.68;1.45;;;15.80;99.90;;;;;;5067361;28;20044;-66
2022/09/16 09:00:24;;;;;;;13.43;2.15;;;15.50;99.90;;;;;;5066317;28;20102;-66
2022/09/16 09:03:01;;;;;;;8.38;1.40;;;15.60;99.90;;;;;;5068148;28;20040;-66
2022/09/16 09:05:51;;;;;;;10.32;1.88;;;15.80;99.90;;;;;;5069102;28;20048;-66
2022/09/16 09:08:36;;;;;;;10.40;1.60;;;16.10;99.90;;;;;;5095146;28;20036;-66
2022/09/16 09:11:25;;;;;;;10.25;1.83;;;16.30;99.90;;;;;;5069030;28;20474;-66
2022/09/16 09:14:03;;;;;;;7.35;1.67;;;16.40;99.90;;;;;;5064299;28;20053;-65
2022/09/16 09:16:41;;;;;;;10.57;1.65;;;16.50;99.90;;;;;;5093379;28;20051;-66
2022/09/16 09:19:09;;;;;;;8.55;1.45;;;16.70;99.90;;;;;;5068515;28;20044;-66
2022/09/16 09:21:58;;;;;;;8.90;1.40;;;16.70;99.10;;;;;;5065830;28;20550;-66
2022/09/16 09:24:39;;;;;;;6.60;1.30;;;16.90;99.90;;;;;;5066619;28;20032;-65
2022/09/16 09:27:29;;;;;;;9.60;1.50;;;16.90;98.50;;;;;;5067299;28;20089;-65
2022/09/16 09:30:20;;;;;;;9.15;1.40;;;16.90;97.80;;;;;;5065050;28;20044;-65
2022/09/16 09:33:36;;;;;;;10.23;1.80;;;17.10;96.20;;;;;;5066944;28;20109;-66
2022/09/16 09:36:25;;;;;;;7.95;1.23;;;17.30;96.90;;;;;;5031263;28;20052;-66
2022/09/16 09:39:09;;;;;;;7.43;1.20;;;17.50;97.40;;;;;;5028881;28;20130;-66
2022/09/16 09:42:17;;;;;;;9.05;1.30;;;17.60;96.60;;;;;;5029032;28;20059;-66
2022/09/16 09:44:51;;;;;;;9.85;1.30;;;17.60;95.00;;;;;;5029593;28;20060;-66
2022/09/16 09:47:26;;;;;;;9.85;1.42;;;17.60;94.20;;;;;;5029774;28;20048;-66
2022/09/16 09:50:01;;;;;;;9.85;1.40;;;17.50;95.90;;;;;;5028944;28;20091;-66
2022/09/16 09:52:39;;;;;;;6.38;1.30;;;17.10;95.80;;;;;;5046612;28;20068;-65
2022/09/16 09:55:17;;;;;;;11.20;1.80;;;16.70;95.40;;;;;;5026869;28;20056;-66
2022/09/16 09:57:59;;;;;;;10.15;1.30;;;16.50;96.10;;;;;;5028939;28;20053;-66
2022/09/16 10:00:24;;;;;;;6.77;1.37;;;16.50;96.90;;;;;;5045942;28;20454;-66
2022/09/16 10:02:50;;;;;;;9.80;1.90;;;16.70;96.80;;;;;;5028270;28;20291;-66
2022/09/16 10:05:23;;;;;;;11.10;1.83;;;16.90;97.20;;;;;;5026034;28;20045;-66
2022/09/16 10:07:51;;;;;;;7.35;1.10;;;17.20;96.80;;;;;;5012854;28;20542;-66
2022/09/16 10:10:21;;;;;;;6.50;1.45;;;17.40;95.30;;;;;;5045949;28;20490;-66
2022/09/16 10:12:47;;;;;;;10.73;1.40;;;17.60;96.40;;;;;;5068069;28;20068;-66
2022/09/16 10:15:29;;;;;;;6.63;1.40;;;17.80;96.00;;;;;;5067906;28;20475;-66
2022/09/16 10:17:58;;;;;;;10.55;1.50;;;18.10;95.70;;;;;;5048531;28;20045;-66
2022/09/16 10:20:33;;;;;;;8.48;1.83;;;18.10;95.70;;;;;;5067050;28;20090;-66
2022/09/16 10:23:09;;;;;;;11.32;1.30;;;18.20;94.80;;;;;;5068250;28;20118;-66
2022/09/16 10:25:35;;;;;;;7.45;1.27;;;17.80;93.80;;;;;;5052167;28;20048;-65
2022/09/16 10:28:04;;;;;;;7.03;1.08;;;17.30;94.30;;;;;;5066502;28;20037;-65
2022/09/16 10:30:47;;;;;;;8.05;1.38;;;16.90;94.30;;;;;;5065073;28;20040;-66
2022/09/16 10:33:35;;;;;;;7.60;1.45;;;16.40;95.60;;;;;;5065546;28;20513;-66
2022/09/16 10:36:08;;;;;;;8.38;1.33;;;16.20;96.40;;;;;;5095703;28;20048;-66
2022/09/16 10:38:39;;;;;;;9.80;1.27;;;16.30;96.20;;;;;;5066730;28;20060;-66
2022/09/16 10:41:26;;;;;;;11.73;1.80;;;16.90;97.00;;;;;;5065131;28;20049;-66
2022/09/16 10:43:53;;;;;;;11.00;1.42;;;17.30;95.90;;;;;;5090303;28;20151;-66
2022/09/16 10:46:19;;;;;;;9.55;1.55;;;17.70;95.80;;;;;;5094838;28;20040;-65
2022/09/16 10:48:47;;;;;;;6.35;1.40;;;18.10;94.20;;;;;;5067924;28;20085;-68
2022/09/16 10:51:24;;;;;;;6.03;1.33;;;18.20;94.20;;;;;;5066139;28;20056;-68
2022/09/16 10:53:56;;;;;;;17.08;1.88;;;18.20;94.70;;;;;;5066199;28;20380;-68
2022/09/16 10:56:28;;;;;;;6.97;1.50;;;17.60;99.40;;;;;;5066436;28;20063;-68
2022/09/16 10:59:12;;;;;;;9.52;1.25;;;16.80;98.50;;;;;;5065729;28;20048;-68
2022/09/16 11:01:44;;;;;;;6.50;1.25;;;16.20;99.80;;;;;;5065260;28;20059;-69
2022/09/16 11:04:28;;;;;;;12.55;1.60;;;15.40;99.90;;;;;;5067421;28;20388;-69
2022/09/16 11:07:12;;;;;;;11.02;1.77;;;15.30;99.90;;;;;;5064821;28;20427;-68
2022/09/16 11:10:02;;;;;;;8.48;1.40;;;15.60;99.90;;;;;;5048652;28;20047;-69
2022/09/16 11:13:00;;;;;;;9.13;1.45;;;16.20;99.90;;;;;;5062961;28;20777;-68
2022/09/16 11:15:47;;;;;;;9.43;1.27;;;16.50;99.90;;;;;;5045820;28;20446;-68
2022/09/16 11:18:26;;;;;;;7.68;1.20;;;17.00;99.90;;;;;;5064571;28;20044;-69
2022/09/16 11:21:18;;;;;;;7.65;1.20;;;17.20;99.50;;;;;;5066235;28;20060;-70
2022/09/16 11:24:08;;;;;;;6.13;1.33;;;17.20;98.50;;;;;;5092184;28;20040;-69
2022/09/16 11:26:58;;;;;;;6.85;1.83;;;17.30;97.70;;;;;;5063955;28;20039;-67
2022/09/16 11:30:00;;;;;;;7.75;1.10;;;17.60;98.10;;;;;;5062864;28;20475;-67
2022/09/16 11:32:48;;;;;;;11.88;2.10;;;17.90;97.00;;;;;;5094351;28;20474;-67
2022/09/16 11:35:33;;;;;;;7.97;1.27;;;17.80;96.80;;;;;;5067342;28;20052;-68
2022/09/16 11:38:25;;;;;;;6.82;1.33;;;17.50;96.70;;;;;;5067220;28;20107;-68
2022/09/16 11:40:59;;;;;;;5.20;1.00;;;17.20;96.80;;;;;;5066771;28;20055;-67
2022/09/16 11:44:03;;;;;;;10.60;1.30;;;16.90;96.80;;;;;;5066178;28;20029;-67
2022/09/16 11:46:46;;;;;;;9.40;1.70;;;16.70;97.70;;;;;;5066363;28;20502;-67
2022/09/16 11:49:49;;;;;;;9.02;1.30;;;16.40;98.20;;;;;;5049520;28;20056;-67
2022/09/16 11:52:30;;;;;;;7.25;1.00;;;16.10;97.50;;;;;;5064232;28;20127;-67
2022/09/16 11:55:21;;;;;;;9.35;1.65;;;16.10;97.90;;;;;;5067084;28;20059;-68
2022/09/16 11:57:55;;;;;;;5.80;1.20;;;16.20;98.80;;;;;;5048962;28;20119;-68
2022/09/16 12:00:21;;;;;;;7.53;1.10;;;16.50;98.50;;;;;;5066785;28;20047;-68
2022/09/16 12:03:38;;;;;;;8.45;1.48;;;16.60;98.40;;;;;;5066391;28;20107;-67
2022/09/16 12:06:10;;;;;;;7.40;1.80;;;16.50;96.10;;;;;;5069422;28;20056;-67
2022/09/16 12:08:50;;;;;;;9.88;1.20;;;16.70;96.80;;;;;;5048238;28;20383;-68
2022/09/16 12:11:35;;;;;;;9.77;1.73;;;16.80;97.10;;;;;;5065619;28;20044;-67
2022/09/16 12:14:23;;;;;;;6.13;0.85;;;16.90;96.30;;;;;;5066742;28;20044;-68
2022/09/16 12:17:05;;;;;;;4.57;0.80;;;16.90;95.80;;;;;;5063229;28;20173;-68
2022/09/16 12:19:45;;;;;;;6.13;1.05;;;17.10;96.50;;;;;;5066382;28;20067;-67
2022/09/16 12:22:17;;;;;;;5.25;0.90;;;17.20;96.90;;;;;;5067449;28;20044;-67
2022/09/16 12:24:55;;;;;;;6.63;0.90;;;16.60;97.60;;;;;;5070166;28;20064;-67
2022/09/16 12:27:39;;;;;;;5.70;0.90;;;16.20;98.00;;;;;;5050890;28;20040;-67
2022/09/16 12:30:17;;;;;;;5.28;0.88;;;16.00;99.10;;;;;;5066874;28;20044;-70
2022/09/16 12:32:54;;;;;;;10.68;1.20;;;16.00;99.50;;;;;;5066636;28;20383;-71
2022/09/16 12:35:27;;;;;;;6.97;1.00;;;16.00;99.60;;;;;;5070010;28;20060;-69
2022/09/16 12:37:53;;;;;;;8.57;1.20;;;16.00;99.40;;;;;;5052398;28;20045;-70
2022/09/16 12:40:37;;;;;;;6.28;1.10;;;16.20;99.90;;;;;;5052129;28;20437;-70
2022/09/16 12:43:33;;;;;;;6.55;1.10;;;16.00;99.90;;;;;;5070816;28;20198;-68
2022/09/16 12:46:04;;;;;;;7.28;1.13;;;16.10;99.70;;;;;;5100013;28;20036;-70
2022/09/16 12:48:48;;;;;;;5.47;1.27;;;16.20;99.20;;;;;;5053954;28;20036;-70
2022/09/16 12:51:29;;;;;;;6.30;1.00;;;16.30;98.90;;;;;;5070362;28;20040;-70
2022/09/16 12:54:07;;;;;;;6.10;0.88;;;16.20;97.90;;;;;;5070328;28;20549;-71
2022/09/16 12:57:08;;;;;;;8.70;1.40;;;16.50;99.30;;;;;;5051967;28;20051;-69
2022/09/16 12:59:58;;;;;;;7.40;1.10;;;16.60;98.50;;;;;;5031983;28;20045;-70
2022/09/16 13:02:31;;;;;;;6.50;1.10;;;16.00;99.90;;;;;;5031017;28;20120;-71
2022/09/16 13:05:08;;;;;;;6.05;1.02;;;15.50;99.90;;;;;;5030940;28;20191;-72
2022/09/16 13:07:35;;;;;;;8.95;1.20;;;15.20;99.90;;;;;;5031737;28;20080;-73
2022/09/16 13:10:06;;;;;;;7.63;1.67;;;15.10;99.90;;;;;;5016051;28;20083;-73
2022/09/16 13:12:33;;;;;;;9.27;1.67;;;14.90;99.90;;;;;;5031124;28;20033;-72
2022/09/16 13:15:01;;;;;;;8.23;1.25;;;14.90;99.90;;;;;;5032159;28;20106;-72
2022/09/16 13:17:32;;;;;;;9.88;1.40;;;15.00;99.90;;;;;;5030648;28;20041;-72
2022/09/16 13:20:32;;;;;;;8.90;1.38;;;15.10;99.90;;;;;;5048343;28;20110;-71